Time;durP1;ratioP1;P1;durP2;ratioP2;P2;SDS_P1;SDS_P2;PMS_P1;PMS_P2;Temp;Humidity;BMP_temperature;BMP_pressure;BME280_temperature;BME280_humidity;BME280_pressure;Samples;Min_cycle;Max_cycle;Signal;HPM_P1;HPM_P2
2024/01/14 00:00:34;;;;;;;12.20;8.93;;;;;;;;;;6113267;23;20405;-92
2024/01/14 00:03:00;;;;;;;11.10;7.77;;;;;;;;;;6114483;23;20388;-92
2024/01/14 00:05:26;;;;;;;22.27;9.70;;;;;;;;;;6138600;23;20444;-91
2024/01/14 00:07:53;;;;;;;22.83;10.93;;;;;;;;;;6143237;23;20848;-92
2024/01/14 00:10:19;;;;;;;24.40;11.87;;;;;;;;;;6144007;23;20478;-92
2024/01/14 00:12:45;;;;;;;16.23;9.03;;;;;;;;;;6141964;23;21094;-91
2024/01/14 00:15:11;;;;;;;24.10;11.20;;;;;;;;;;6165289;23;20471;-92
2024/01/14 00:17:37;;;;;;;23.37;9.60;;;;;;;;;;6170175;23;20403;-92
2024/01/14 00:20:04;;;;;;;13.40;8.70;;;;;;;;;;6197207;23;20423;-93
2024/01/14 00:22:30;;;;;;;16.37;8.67;;;;;;;;;;6194536;23;20386;-92
2024/01/14 00:24:57;;;;;;;27.90;13.07;;;;;;;;;;6196812;23;20395;-92
2024/01/14 00:27:23;;;;;;;23.57;10.30;;;;;;;;;;6170450;23;20372;-91
2024/01/14 00:29:50;;;;;;;15.33;12.57;;;;;;;;;;6170978;23;20386;-91
2024/01/14 00:32:16;;;;;;;18.83;9.13;;;;;;;;;;6168846;23;20400;-91
2024/01/14 00:34:42;;;;;;;13.47;9.03;;;;;;;;;;6218415;23;20369;-91
2024/01/14 00:37:09;;;;;;;22.77;10.30;;;;;;;;;;6192605;23;20380;-91
2024/01/14 00:39:38;;;;;;;17.87;9.77;;;;;;;;;;6167085;23;20422;-91
2024/01/14 00:42:04;;;;;;;23.10;9.43;;;;;;;;;;6193613;23;20788;-92
2024/01/14 00:44:30;;;;;;;19.73;10.97;;;;;;;;;;6191521;23;20396;-92
2024/01/14 00:46:56;;;;;;;21.40;11.67;;;;;;;;;;6167830;23;20411;-92
2024/01/14 00:49:22;;;;;;;24.20;9.10;;;;;;;;;;6167804;23;20376;-93
2024/01/14 00:51:48;;;;;;;16.43;10.43;;;;;;;;;;6197277;23;20583;-91
2024/01/14 00:54:14;;;;;;;17.50;7.30;;;;;;;;;;6172079;23;20384;-91
2024/01/14 00:56:41;;;;;;;18.07;9.70;;;;;;;;;;6193548;23;20376;-91
2024/01/14 00:59:07;;;;;;;14.33;9.90;;;;;;;;;;6195623;23;20490;-91
2024/01/14 01:01:33;;;;;;;12.43;9.03;;;;;;;;;;6193303;23;20380;-92
2024/01/14 01:03:59;;;;;;;16.60;9.23;;;;;;;;;;6196705;23;20380;-92
2024/01/14 01:06:25;;;;;;;17.20;8.87;;;;;;;;;;6194106;23;20391;-91
2024/01/14 01:08:51;;;;;;;18.50;9.67;;;;;;;;;;6193167;23;20395;-92
2024/01/14 01:11:17;;;;;;;16.07;9.97;;;;;;;;;;6191092;23;20384;-92
2024/01/14 01:13:43;;;;;;;18.97;8.80;;;;;;;;;;6193014;23;20380;-91
2024/01/14 01:16:09;;;;;;;22.23;10.00;;;;;;;;;;6192366;23;20388;-91
2024/01/14 01:18:36;;;;;;;19.20;10.13;;;;;;;;;;6170130;23;20462;-92
2024/01/14 01:21:02;;;;;;;20.10;8.63;;;;;;;;;;6167706;23;20380;-92
2024/01/14 01:23:28;;;;;;;26.63;12.53;;;;;;;;;;6198056;23;20550;-90
2024/01/14 01:25:54;;;;;;;18.40;8.50;;;;;;;;;;6168315;23;20392;-92
2024/01/14 01:28:20;;;;;;;15.13;8.90;;;;;;;;;;6196336;23;20384;-93
2024/01/14 01:30:46;;;;;;;19.33;9.20;;;;;;;;;;6192683;23;20384;-92
2024/01/14 01:33:12;;;;;;;19.80;10.40;;;;;;;;;;6196345;23;20376;-92
2024/01/14 01:35:38;;;;;;;24.13;11.33;;;;;;;;;;6192871;23;20474;-92
2024/01/14 01:38:05;;;;;;;18.77;7.40;;;;;;;;;;6167988;23;21002;-92
2024/01/14 01:40:31;;;;;;;15.60;9.87;;;;;;;;;;6193716;23;20375;-92
2024/01/14 01:42:57;;;;;;;18.83;8.33;;;;;;;;;;6194821;23;20574;-92
2024/01/14 01:45:23;;;;;;;22.97;7.87;;;;;;;;;;6193446;23;20383;-92
2024/01/14 01:47:49;;;;;;;26.77;12.90;;;;;;;;;;6193186;23;20408;-92
2024/01/14 01:50:15;;;;;;;25.83;11.30;;;;;;;;;;6166508;23;20392;-93
2024/01/14 01:52:41;;;;;;;22.33;10.47;;;;;;;;;;6168089;23;20376;-92
2024/01/14 01:55:07;;;;;;;17.73;9.23;;;;;;;;;;6163886;23;20883;-92
2024/01/14 01:57:34;;;;;;;21.10;9.77;;;;;;;;;;6165344;23;20384;-92
2024/01/14 02:00:00;;;;;;;21.23;9.87;;;;;;;;;;6161919;23;20457;-91
2024/01/14 02:02:26;;;;;;;28.07;13.57;;;;;;;;;;6163457;23;20376;-90
2024/01/14 02:04:52;;;;;;;15.70;10.50;;;;;;;;;;6161677;23;20403;-92
2024/01/14 02:07:19;;;;;;;22.63;10.93;;;;;;;;;;6164717;23;20415;-91
2024/01/14 02:09:45;;;;;;;12.77;7.90;;;;;;;;;;6162582;23;20395;-92
2024/01/14 02:12:11;;;;;;;15.57;10.40;;;;;;;;;;6162862;23;20471;-92
2024/01/14 02:14:38;;;;;;;15.60;8.60;;;;;;;;;;6163560;23;20379;-92
2024/01/14 02:17:04;;;;;;;18.03;8.53;;;;;;;;;;6162902;23;20384;-91
2024/01/14 02:19:30;;;;;;;17.77;11.13;;;;;;;;;;6180019;23;20434;-92
2024/01/14 02:22:08;;;;;;;23.33;9.07;;;;;;;;;;6165439;23;20370;-92
2024/01/14 02:24:34;;;;;;;19.43;10.87;;;;;;;;;;6189316;23;20372;-92
2024/01/14 02:27:00;;;;;;;16.57;10.43;;;;;;;;;;6164202;23;20458;-92
2024/01/14 02:29:28;;;;;;;20.57;9.60;;;;;;;;;;6163800;23;20404;-91
2024/01/14 02:32:00;;;;;;;16.77;10.30;;;;;;;;;;6191154;23;20392;-92
2024/01/14 02:34:26;;;;;;;19.87;12.27;;;;;;;;;;6188818;23;20436;-92
2024/01/14 02:36:52;;;;;;;22.80;11.80;;;;;;;;;;6167835;23;20396;-93
2024/01/14 02:39:19;;;;;;;24.83;8.60;;;;;;;;;;6164913;23;20455;-92
2024/01/14 02:41:45;;;;;;;10.40;7.50;;;;;;;;;;6192449;23;20880;-91
2024/01/14 02:44:11;;;;;;;18.90;7.13;;;;;;;;;;6192727;23;20368;-92
2024/01/14 02:46:37;;;;;;;22.00;9.63;;;;;;;;;;6195121;23;20380;-91
2024/01/14 02:49:03;;;;;;;20.57;10.60;;;;;;;;;;6195008;23;20717;-91
2024/01/14 02:51:29;;;;;;;25.33;9.03;;;;;;;;;;6167127;23;20376;-92
2024/01/14 02:53:58;;;;;;;20.87;10.80;;;;;;;;;;6190558;23;20384;-92
2024/01/14 02:56:23;;;;;;;35.33;9.90;;;;;;;;;;6166544;23;20376;-92
2024/01/14 02:58:50;;;;;;;9.27;8.07;;;;;;;;;;6192609;23;20419;-92
2024/01/14 03:01:15;;;;;;;16.77;8.17;;;;;;;;;;6191345;23;20386;-92
2024/01/14 03:03:44;;;;;;;15.33;8.07;;;;;;;;;;6195112;23;20731;-93
2024/01/14 03:06:10;;;;;;;17.93;9.77;;;;;;;;;;6167807;23;20376;-92
2024/01/14 03:08:36;;;;;;;23.80;11.27;;;;;;;;;;6166929;23;20387;-92
2024/01/14 03:11:02;;;;;;;24.20;11.37;;;;;;;;;;6167156;23;20467;-93
2024/01/14 03:13:28;;;;;;;22.93;10.17;;;;;;;;;;6165903;23;20407;-92
2024/01/14 03:15:54;;;;;;;18.80;9.93;;;;;;;;;;6192103;23;20378;-92
2024/01/14 03:18:20;;;;;;;14.03;9.30;;;;;;;;;;6166502;23;20450;-93
2024/01/14 03:20:47;;;;;;;26.00;13.27;;;;;;;;;;6165617;23;20856;-92
2024/01/14 03:23:13;;;;;;;24.77;10.03;;;;;;;;;;6167896;23;20375;-93
2024/01/14 03:25:39;;;;;;;17.60;9.70;;;;;;;;;;6166270;23;20376;-93
2024/01/14 03:28:05;;;;;;;15.50;7.47;;;;;;;;;;6165952;23;20731;-92
2024/01/14 03:30:31;;;;;;;18.67;10.50;;;;;;;;;;6166613;23;20474;-92
2024/01/14 03:32:57;;;;;;;18.67;8.90;;;;;;;;;;6169251;23;20380;-92
2024/01/14 03:35:23;;;;;;;13.80;6.87;;;;;;;;;;6169177;23;20395;-92
2024/01/14 03:37:49;;;;;;;15.03;7.97;;;;;;;;;;6169809;23;20384;-92
2024/01/14 03:40:15;;;;;;;19.43;9.20;;;;;;;;;;6167003;23;20486;-91
2024/01/14 03:42:41;;;;;;;14.27;8.60;;;;;;;;;;6166835;23;20424;-91
2024/01/14 03:45:07;;;;;;;21.73;12.70;;;;;;;;;;6166691;23;20392;-90
2024/01/14 03:47:33;;;;;;;22.47;10.50;;;;;;;;;;6167952;23;20387;-92
2024/01/14 03:49:59;;;;;;;16.53;9.27;;;;;;;;;;6168232;23;20407;-91
2024/01/14 03:52:25;;;;;;;14.83;6.23;;;;;;;;;;6169844;23;20403;-91
2024/01/14 03:54:52;;;;;;;26.30;10.63;;;;;;;;;;6169882;23;20410;-92
2024/01/14 03:57:18;;;;;;;14.37;8.40;;;;;;;;;;6171382;23;20514;-92
2024/01/14 03:59:44;;;;;;;19.83;11.23;;;;;;;;;;6168004;23;20419;-92
2024/01/14 04:02:10;;;;;;;24.03;9.10;;;;;;;;;;6168902;23;20367;-92
2024/01/14 04:04:36;;;;;;;32.27;10.40;;;;;;;;;;6177851;23;20398;-92
2024/01/14 04:07:03;;;;;;;15.90;9.10;;;;;;;;;;6168898;23;20380;-92
2024/01/14 04:09:30;;;;;;;17.50;9.43;;;;;;;;;;6194149;23;20403;-91
2024/01/14 04:11:56;;;;;;;18.10;9.13;;;;;;;;;;6193356;23;20384;-92
2024/01/14 04:14:22;;;;;;;19.77;11.37;;;;;;;;;;6194141;23;20668;-92
2024/01/14 04:16:48;;;;;;;22.47;9.87;;;;;;;;;;6165982;23;20375;-92
2024/01/14 04:19:14;;;;;;;9.23;7.73;;;;;;;;;;6193305;23;20495;-92
2024/01/14 04:21:41;;;;;;;15.90;8.57;;;;;;;;;;6189863;23;20384;-91
2024/01/14 04:24:08;;;;;;;21.77;8.90;;;;;;;;;;6192385;23;20368;-92
2024/01/14 04:26:34;;;;;;;17.37;9.70;;;;;;;;;;6190224;23;20388;-92
2024/01/14 04:29:00;;;;;;;14.53;7.30;;;;;;;;;;6193247;23;20397;-92
2024/01/14 04:31:26;;;;;;;22.10;11.57;;;;;;;;;;6189942;23;20958;-92
2024/01/14 04:33:52;;;;;;;11.73;9.77;;;;;;;;;;6167303;23;20459;-92
2024/01/14 04:36:18;;;;;;;6.93;4.43;;;;;;;;;;6188244;23;20389;-92
2024/01/14 04:38:44;;;;;;;27.33;7.07;;;;;;;;;;6194891;23;20512;-91
2024/01/14 04:41:10;;;;;;;13.90;8.40;;;;;;;;;;6190732;23;20384;-92
2024/01/14 04:43:36;;;;;;;20.03;10.73;;;;;;;;;;6191299;23;20452;-92
2024/01/14 04:46:02;;;;;;;21.20;9.30;;;;;;;;;;6166428;23;20410;-91
2024/01/14 04:48:28;;;;;;;25.70;11.30;;;;;;;;;;6189927;23;20458;-91
2024/01/14 04:50:54;;;;;;;17.83;8.93;;;;;;;;;;6168870;23;20399;-91
2024/01/14 04:53:20;;;;;;;15.70;7.23;;;;;;;;;;6192038;23;20392;-92
2024/01/14 04:55:46;;;;;;;25.33;12.13;;;;;;;;;;6193671;23;20486;-92
2024/01/14 04:58:12;;;;;;;4.30;2.20;;;;;;;;;;6166102;23;20502;-92
2024/01/14 05:00:38;;;;;;;14.80;7.63;;;;;;;;;;6194877;23;20479;-91
2024/01/14 05:03:04;;;;;;;22.43;13.97;;;;;;;;;;6195564;23;20380;-93
2024/01/14 05:05:30;;;;;;;22.97;9.80;;;;;;;;;;6159712;23;20491;-93
2024/01/14 05:08:04;;;;;;;23.33;7.77;;;;;;;;;;6135918;23;20396;-92
2024/01/14 05:10:30;;;;;;;8.63;4.57;;;;;;;;;;6134896;23;20381;-92
2024/01/14 05:12:56;;;;;;;5.67;3.13;;;;;;;;;;6137467;23;20449;-92
2024/01/14 05:15:22;;;;;;;20.37;9.23;;;;;;;;;;6136033;23;20392;-92
2024/01/14 05:17:49;;;;;;;13.90;9.60;;;;;;;;;;6138261;23;20388;-91
2024/01/14 05:20:16;;;;;;;16.43;6.63;;;;;;;;;;6136952;23;20433;-92
2024/01/14 05:22:42;;;;;;;16.90;7.50;;;;;;;;;;6136211;23;20412;-92
2024/01/14 05:25:08;;;;;;;12.10;7.90;;;;;;;;;;6137409;23;20385;-93
2024/01/14 05:27:34;;;;;;;26.03;7.63;;;;;;;;;;6135971;23;20381;-93
2024/01/14 05:30:00;;;;;;;18.40;9.60;;;;;;;;;;6135105;23;20424;-91
2024/01/14 05:32:25;;;;;;;34.33;13.43;;;;;;;;;;6136822;23;20392;-92
2024/01/14 05:34:51;;;;;;;19.67;9.23;;;;;;;;;;6134105;23;20401;-91
2024/01/14 05:37:17;;;;;;;14.20;7.63;;;;;;;;;;6179320;23;20391;-92
2024/01/14 05:39:44;;;;;;;17.90;8.43;;;;;;;;;;6189098;23;20502;-91
2024/01/14 05:42:10;;;;;;;17.73;8.10;;;;;;;;;;6189626;23;20384;-92
2024/01/14 05:44:36;;;;;;;17.00;9.40;;;;;;;;;;6190928;23;20448;-92
2024/01/14 05:47:02;;;;;;;20.73;8.40;;;;;;;;;;6187762;23;20883;-92
2024/01/14 05:49:28;;;;;;;11.63;6.10;;;;;;;;;;6187700;23;20927;-92
2024/01/14 05:51:54;;;;;;;20.47;9.77;;;;;;;;;;6186006;23;20391;-92
2024/01/14 05:54:20;;;;;;;17.63;10.87;;;;;;;;;;6188598;23;20371;-92
2024/01/14 05:56:46;;;;;;;12.17;4.57;;;;;;;;;;6160680;23;20415;-92
2024/01/14 05:59:12;;;;;;;16.23;8.57;;;;;;;;;;6186025;23;20442;-93
2024/01/14 06:01:38;;;;;;;15.87;10.40;;;;;;;;;;6185538;23;20525;-91
2024/01/14 06:04:05;;;;;;;13.40;10.23;;;;;;;;;;6162424;23;20502;-91
2024/01/14 06:06:30;;;;;;;27.63;8.50;;;;;;;;;;6165264;23;20402;-92
2024/01/14 06:08:57;;;;;;;13.97;5.73;;;;;;;;;;6158548;23;20388;-92
2024/01/14 06:11:23;;;;;;;20.27;9.33;;;;;;;;;;6188113;23;20374;-91
2024/01/14 06:13:48;;;;;;;22.37;11.27;;;;;;;;;;6161664;23;20375;-93
2024/01/14 06:16:15;;;;;;;19.70;8.33;;;;;;;;;;6167224;23;20395;-93
2024/01/14 06:18:41;;;;;;;14.87;9.43;;;;;;;;;;6168285;23;20424;-93
2024/01/14 06:21:08;;;;;;;20.07;9.07;;;;;;;;;;6165402;23;20376;-92
2024/01/14 06:23:34;;;;;;;15.97;8.47;;;;;;;;;;6166052;23;20431;-93
2024/01/14 06:26:00;;;;;;;13.20;7.37;;;;;;;;;;6163784;23;20466;-92
2024/01/14 06:28:26;;;;;;;24.60;10.43;;;;;;;;;;6165080;23;20399;-92
2024/01/14 06:30:52;;;;;;;23.87;10.37;;;;;;;;;;6163895;23;20383;-91
2024/01/14 06:33:18;;;;;;;21.17;11.33;;;;;;;;;;6167757;23;20391;-92
2024/01/14 06:35:44;;;;;;;20.60;10.13;;;;;;;;;;6187091;23;20832;-90
2024/01/14 06:38:10;;;;;;;13.67;7.20;;;;;;;;;;6164974;23;20379;-93
2024/01/14 06:40:38;;;;;;;18.73;9.17;;;;;;;;;;6165599;23;20396;-90
2024/01/14 06:43:04;;;;;;;17.47;10.77;;;;;;;;;;6165014;23;20395;-91
2024/01/14 06:45:30;;;;;;;10.80;7.50;;;;;;;;;;6164423;23;20448;-91
2024/01/14 06:47:57;;;;;;;22.43;10.60;;;;;;;;;;6166738;23;20380;-90
2024/01/14 06:50:23;;;;;;;12.83;8.13;;;;;;;;;;6163094;23;20442;-92
2024/01/14 06:52:49;;;;;;;20.40;9.63;;;;;;;;;;6166923;23;20454;-91
2024/01/14 06:55:15;;;;;;;23.50;8.67;;;;;;;;;;6164817;23;20384;-91
2024/01/14 06:57:43;;;;;;;18.57;9.83;;;;;;;;;;6166254;23;20470;-92
2024/01/14 07:00:09;;;;;;;31.03;11.90;;;;;;;;;;6168703;23;20493;-93
2024/01/14 07:02:38;;;;;;;13.47;6.03;;;;;;;;;;6167156;23;20462;-94
2024/01/14 07:05:05;;;;;;;21.63;11.60;;;;;;;;;;6186483;23;20448;-93
2024/01/14 07:07:32;;;;;;;20.23;11.40;;;;;;;;;;6168556;23;20384;-92
2024/01/14 07:09:58;;;;;;;12.90;9.13;;;;;;;;;;6167104;23;20388;-93
2024/01/14 07:12:24;;;;;;;36.90;14.38;;;;;;;;;;6188153;23;20413;-93
2024/01/14 07:14:50;;;;;;;28.20;10.30;;;;;;;;;;6167736;23;20171;-92
2024/01/14 07:17:16;;;;;;;25.23;12.90;;;;;;;;;;6163506;23;20392;-96
2024/01/14 07:19:45;;;;;;;18.87;9.57;;;;;;;;;;6169961;23;20440;-93
2024/01/14 07:22:11;;;;;;;15.57;8.67;;;;;;;;;;6193412;23;20395;-93
2024/01/14 07:24:37;;;;;;;15.77;9.47;;;;;;;;;;6192825;23;20399;-93
2024/01/14 07:27:03;;;;;;;15.90;9.03;;;;;;;;;;6192092;23;20379;-94
2024/01/14 07:29:32;;;;;;;19.00;10.77;;;;;;;;;;6191934;23;20387;-92
2024/01/14 07:31:58;;;;;;;12.90;9.07;;;;;;;;;;6167658;23;20431;-94
2024/01/14 07:34:24;;;;;;;20.37;9.63;;;;;;;;;;6192572;23;21112;-93
2024/01/14 07:36:50;;;;;;;17.17;8.70;;;;;;;;;;6190966;23;20383;-94
2024/01/14 07:39:16;;;;;;;17.67;11.10;;;;;;;;;;6194098;23;20478;-92
2024/01/14 07:41:42;;;;;;;23.87;12.07;;;;;;;;;;6169777;23;20442;-93
2024/01/14 07:44:08;;;;;;;17.13;9.93;;;;;;;;;;6169259;23;20384;-93
2024/01/14 07:46:34;;;;;;;23.60;7.60;;;;;;;;;;6191670;23;20376;-94
2024/01/14 07:49:00;;;;;;;14.43;8.73;;;;;;;;;;6195238;23;20383;-93
2024/01/14 07:51:26;;;;;;;21.70;10.33;;;;;;;;;;6193524;23;20446;-91
2024/01/14 07:53:52;;;;;;;11.13;7.43;;;;;;;;;;6170550;23;20720;-93
2024/01/14 07:56:19;;;;;;;12.20;7.57;;;;;;;;;;6195698;23;20388;-93
2024/01/14 07:58:45;;;;;;;24.33;11.70;;;;;;;;;;6194260;23;20515;-92
2024/01/14 08:01:11;;;;;;;13.60;11.70;;;;;;;;;;6171240;23;20399;-94
2024/01/14 08:03:37;;;;;;;18.23;10.00;;;;;;;;;;6195809;23;20364;-94
2024/01/14 08:06:03;;;;;;;36.83;11.77;;;;;;;;;;6135488;23;20401;-93
2024/01/14 08:08:30;;;;;;;18.27;11.70;;;;;;;;;;6108539;23;20581;-93
2024/01/14 08:10:56;;;;;;;25.00;7.60;;;;;;;;;;6132815;23;20385;-92
2024/01/14 08:13:22;;;;;;;29.47;11.07;;;;;;;;;;6110277;23;20402;-91
2024/01/14 08:15:48;;;;;;;17.30;6.97;;;;;;;;;;6111815;23;20433;-90
2024/01/14 08:18:14;;;;;;;22.83;8.40;;;;;;;;;;6109271;23;20385;-92
2024/01/14 08:20:41;;;;;;;19.07;9.37;;;;;;;;;;6107026;23;20722;-91
2024/01/14 08:23:07;;;;;;;19.87;8.77;;;;;;;;;;6105676;23;20385;-91
2024/01/14 08:25:34;;;;;;;20.10;9.40;;;;;;;;;;6107858;23;20761;-91
2024/01/14 08:28:00;;;;;;;28.13;10.97;;;;;;;;;;6105585;23;20497;-89
2024/01/14 08:30:26;;;;;;;12.30;5.60;;;;;;;;;;6110941;23;20393;-91
2024/01/14 08:32:52;;;;;;;14.43;7.10;;;;;;;;;;6108669;23;20530;-91
2024/01/14 08:35:18;;;;;;;11.80;7.60;;;;;;;;;;6109204;23;20370;-91
2024/01/14 08:37:46;;;;;;;10.17;6.77;;;;;;;;;;6158793;23;20384;-92
2024/01/14 08:40:15;;;;;;;20.83;11.33;;;;;;;;;;6169193;23;20431;-93
2024/01/14 08:42:44;;;;;;;27.63;10.77;;;;;;;;;;6169179;23;20404;-93
2024/01/14 08:45:15;;;;;;;16.03;9.50;;;;;;;;;;6169243;23;20463;-93
2024/01/14 08:47:42;;;;;;;24.13;9.03;;;;;;;;;;6169717;23;20384;-95
2024/01/14 08:50:11;;;;;;;18.27;9.07;;;;;;;;;;6171100;23;20394;-94
2024/01/14 08:52:37;;;;;;;19.17;10.67;;;;;;;;;;6168534;23;20396;-94
2024/01/14 08:55:06;;;;;;;12.57;7.43;;;;;;;;;;6171317;23;20447;-93
2024/01/14 08:57:33;;;;;;;17.60;9.33;;;;;;;;;;6167175;23;20391;-93
2024/01/14 08:59:59;;;;;;;15.53;9.50;;;;;;;;;;6167799;23;20438;-91
2024/01/14 09:02:25;;;;;;;18.70;9.30;;;;;;;;;;6166285;23;20384;-91
2024/01/14 09:04:51;;;;;;;16.23;9.67;;;;;;;;;;6182652;23;20395;-92
2024/01/14 09:07:17;;;;;;;20.03;9.17;;;;;;;;;;6191928;23;20384;-91
2024/01/14 09:09:43;;;;;;;28.00;10.30;;;;;;;;;;6186552;23;20405;-91
2024/01/14 09:12:10;;;;;;;21.70;11.50;;;;;;;;;;6164850;23;20376;-91
2024/01/14 09:14:36;;;;;;;22.30;10.87;;;;;;;;;;6163323;23;20902;-92
2024/01/14 09:17:02;;;;;;;18.60;8.37;;;;;;;;;;6164019;23;20404;-92
2024/01/14 09:19:28;;;;;;;15.40;10.57;;;;;;;;;;6188829;23;20445;-89
2024/01/14 09:21:54;;;;;;;24.93;11.70;;;;;;;;;;6164220;23;20380;-90
2024/01/14 09:24:20;;;;;;;20.47;9.40;;;;;;;;;;6189964;23;20400;-90
2024/01/14 09:26:47;;;;;;;19.60;7.93;;;;;;;;;;6192036;23;20423;-92
2024/01/14 09:29:13;;;;;;;17.93;9.53;;;;;;;;;;6189176;23;20364;-90
2024/01/14 09:31:39;;;;;;;16.40;6.20;;;;;;;;;;6192040;23;20376;-91
2024/01/14 09:34:05;;;;;;;21.40;8.60;;;;;;;;;;6188798;23;20768;-90
2024/01/14 09:36:32;;;;;;;23.33;11.43;;;;;;;;;;6190271;23;20380;-92
2024/01/14 09:39:01;;;;;;;19.37;11.67;;;;;;;;;;6166358;23;20427;-93
2024/01/14 09:41:37;;;;;;;23.00;9.13;;;;;;;;;;6169820;23;20456;-91
2024/01/14 09:44:04;;;;;;;24.40;12.40;;;;;;;;;;6190272;23;20852;-92
2024/01/14 09:46:31;;;;;;;17.17;11.37;;;;;;;;;;6168310;23;20463;-92
2024/01/14 09:48:57;;;;;;;20.70;8.50;;;;;;;;;;6163947;23;20422;-91
2024/01/14 09:51:25;;;;;;;18.73;9.50;;;;;;;;;;6192072;23;20471;-94
2024/01/14 09:53:51;;;;;;;17.70;9.77;;;;;;;;;;6191761;23;20380;-91
2024/01/14 09:56:17;;;;;;;17.33;11.03;;;;;;;;;;6188987;23;20419;-91
2024/01/14 09:58:44;;;;;;;18.97;11.00;;;;;;;;;;6165784;23;20438;-92
2024/01/14 10:01:10;;;;;;;21.40;9.50;;;;;;;;;;6167762;23;20471;-91
2024/01/14 10:03:36;;;;;;;17.13;10.33;;;;;;;;;;6194077;23;20383;-92
2024/01/14 10:06:02;;;;;;;20.37;9.97;;;;;;;;;;6169774;23;20458;-92
2024/01/14 10:08:28;;;;;;;33.65;14.68;;;;;;;;;;6170241;23;20410;-92
2024/01/14 10:10:54;;;;;;;24.00;10.43;;;;;;;;;;6166618;23;20212;-93
2024/01/14 10:13:21;;;;;;;16.30;9.93;;;;;;;;;;6168392;23;20392;-92
2024/01/14 10:15:50;;;;;;;14.97;9.10;;;;;;;;;;6168342;23;20438;-91
2024/01/14 10:18:19;;;;;;;27.17;10.67;;;;;;;;;;6168491;23;20423;-91
2024/01/14 10:20:45;;;;;;;31.70;12.30;;;;;;;;;;6166680;23;20931;-90
2024/01/14 10:23:14;;;;;;;22.07;13.13;;;;;;;;;;6171093;23;20387;-91
2024/01/14 10:25:40;;;;;;;27.60;11.20;;;;;;;;;;6168070;23;20391;-91
2024/01/14 10:28:07;;;;;;;27.13;12.17;;;;;;;;;;6166836;23;20376;-92
2024/01/14 10:30:35;;;;;;;14.60;10.70;;;;;;;;;;6168139;23;20380;-92
2024/01/14 10:33:03;;;;;;;15.00;8.70;;;;;;;;;;6167612;23;20447;-92
2024/01/14 10:35:29;;;;;;;17.13;9.50;;;;;;;;;;6166658;23;20426;-92
2024/01/14 10:37:55;;;;;;;25.63;11.87;;;;;;;;;;6191273;23;20415;-92
2024/01/14 10:40:22;;;;;;;21.90;10.93;;;;;;;;;;6168125;23;20420;-92
2024/01/14 10:42:48;;;;;;;19.37;12.40;;;;;;;;;;6167821;23;20434;-93
2024/01/14 10:45:19;;;;;;;28.00;10.50;;;;;;;;;;6164421;23;20384;-91
2024/01/14 10:47:47;;;;;;;23.13;10.37;;;;;;;;;;6168840;23;20399;-92
2024/01/14 10:50:13;;;;;;;21.70;10.47;;;;;;;;;;6166465;23;20408;-92
2024/01/14 10:52:39;;;;;;;22.93;11.00;;;;;;;;;;6166889;23;20635;-91
2024/01/14 10:55:09;;;;;;;23.27;11.30;;;;;;;;;;6165624;23;20391;-92
2024/01/14 10:57:38;;;;;;;19.73;11.23;;;;;;;;;;6191586;23;20892;-92
2024/01/14 11:00:05;;;;;;;24.23;12.27;;;;;;;;;;6165243;23;20411;-89
2024/01/14 11:02:31;;;;;;;19.80;10.90;;;;;;;;;;6166264;23;20384;-91
2024/01/14 11:04:57;;;;;;;20.77;10.93;;;;;;;;;;6176118;23;20399;-91
2024/01/14 11:07:26;;;;;;;26.80;10.63;;;;;;;;;;6164518;23;20416;-92
2024/01/14 11:09:52;;;;;;;20.37;12.77;;;;;;;;;;6164260;23;20376;-91
2024/01/14 11:12:20;;;;;;;18.27;11.90;;;;;;;;;;6171801;23;20383;-92
2024/01/14 11:14:57;;;;;;;22.20;10.57;;;;;;;;;;6192323;23;20439;-91
2024/01/14 11:17:33;;;;;;;23.43;12.10;;;;;;;;;;6165818;23;20379;-90
2024/01/14 11:20:00;;;;;;;16.23;10.43;;;;;;;;;;6163892;23;20419;-91
2024/01/14 11:22:26;;;;;;;20.10;11.43;;;;;;;;;;6169366;23;20384;-93
2024/01/14 11:24:53;;;;;;;25.90;10.90;;;;;;;;;;6163728;23;20388;-92
2024/01/14 11:27:19;;;;;;;18.27;11.87;;;;;;;;;;6167196;23;20442;-91
2024/01/14 11:29:45;;;;;;;25.93;11.53;;;;;;;;;;6166254;23;20384;-91
2024/01/14 11:32:15;;;;;;;18.90;11.30;;;;;;;;;;6167539;23;20391;-92
2024/01/14 11:34:48;;;;;;;30.73;12.57;;;;;;;;;;6165222;23;20471;-93
2024/01/14 11:37:24;;;;;;;19.03;10.47;;;;;;;;;;6189524;23;20561;-93
2024/01/14 11:39:50;;;;;;;21.00;11.23;;;;;;;;;;6189813;23;20442;-92
2024/01/14 11:42:16;;;;;;;23.90;12.47;;;;;;;;;;6167060;23;20391;-94
2024/01/14 11:44:42;;;;;;;26.23;12.23;;;;;;;;;;6165113;23;20392;-94
2024/01/14 11:47:08;;;;;;;29.77;12.20;;;;;;;;;;6165285;23;20387;-94
2024/01/14 11:49:34;;;;;;;21.60;11.53;;;;;;;;;;6173062;23;20388;-94
2024/01/14 11:52:02;;;;;;;24.37;13.10;;;;;;;;;;6204723;23;20387;-93
2024/01/14 11:54:31;;;;;;;19.37;11.53;;;;;;;;;;6179408;23;20384;-93
2024/01/14 11:57:01;;;;;;;24.33;11.23;;;;;;;;;;6179050;23;20394;-92
2024/01/14 11:59:27;;;;;;;22.97;12.40;;;;;;;;;;6173337;23;20420;-92
2024/01/14 12:01:53;;;;;;;21.50;9.90;;;;;;;;;;6163150;23;20391;-92
2024/01/14 12:04:19;;;;;;;18.67;10.27;;;;;;;;;;6187829;23;20410;-92
2024/01/14 12:06:51;;;;;;;28.70;13.97;;;;;;;;;;6168188;23;20412;-93
2024/01/14 12:11:58;;;;;;;25.87;12.20;;;;;;;;;;6262536;22;20466;-94
2024/01/14 12:14:26;;;;;;;24.47;12.73;;;;;;;;;;6241076;22;20394;-93
2024/01/14 12:16:52;;;;;;;19.00;11.27;;;;;;;;;;6244402;22;20374;-93
2024/01/14 12:19:18;;;;;;;20.37;11.07;;;;;;;;;;6242170;23;20421;-93
2024/01/14 12:21:45;;;;;;;24.63;13.70;;;;;;;;;;6241842;22;20390;-94
2024/01/14 12:24:11;;;;;;;25.67;14.93;;;;;;;;;;6267127;23;20370;-92
2024/01/14 12:26:37;;;;;;;27.37;12.83;;;;;;;;;;6241424;23;20413;-93
2024/01/14 12:29:04;;;;;;;25.50;13.70;;;;;;;;;;6230414;23;20793;-93
2024/01/14 12:31:34;;;;;;;25.67;11.97;;;;;;;;;;6227336;23;20389;-94
2024/01/14 12:34:05;;;;;;;20.27;12.47;;;;;;;;;;6254178;23;20346;-94
2024/01/14 12:36:31;;;;;;;21.53;11.60;;;;;;;;;;6229438;22;20401;-92
2024/01/14 12:38:58;;;;;;;26.20;12.33;;;;;;;;;;6230119;23;20422;-92
2024/01/14 12:41:24;;;;;;;21.73;11.70;;;;;;;;;;6229282;23;20366;-93
2024/01/14 12:43:50;;;;;;;18.63;11.10;;;;;;;;;;6228796;22;20873;-93
2024/01/14 12:46:16;;;;;;;21.57;11.67;;;;;;;;;;6228255;23;21043;-92
2024/01/14 12:48:43;;;;;;;21.80;11.07;;;;;;;;;;6228130;23;20393;-93
2024/01/14 12:51:09;;;;;;;21.50;10.10;;;;;;;;;;6230374;23;20917;-93
2024/01/14 12:53:35;;;;;;;19.37;11.23;;;;;;;;;;6253955;23;20366;-92
2024/01/14 12:56:28;;;;;;;20.60;12.20;;;;;;;;;;6227228;23;20386;-94
2024/01/14 12:58:54;;;;;;;20.07;10.40;;;;;;;;;;6226471;23;20418;-93
2024/01/14 13:01:20;;;;;;;18.73;9.23;;;;;;;;;;6227423;23;20375;-93
2024/01/14 13:03:47;;;;;;;25.60;10.20;;;;;;;;;;6227767;23;20392;-95
2024/01/14 13:06:13;;;;;;;20.43;10.83;;;;;;;;;;6227059;23;20382;-94
2024/01/14 13:08:39;;;;;;;20.90;9.63;;;;;;;;;;6229020;23;20402;-94
2024/01/14 13:11:05;;;;;;;19.67;8.50;;;;;;;;;;6228234;22;20427;-93
2024/01/14 13:13:35;;;;;;;19.30;10.40;;;;;;;;;;6227879;23;20866;-93
2024/01/14 13:16:01;;;;;;;17.60;9.23;;;;;;;;;;6225950;23;20421;-93
2024/01/14 13:18:27;;;;;;;22.67;11.27;;;;;;;;;;6230478;23;20410;-92
2024/01/14 13:20:53;;;;;;;48.77;36.93;;;;;;;;;;6232978;22;20404;-91
2024/01/14 13:23:19;;;;;;;23.23;11.10;;;;;;;;;;6233287;23;20380;-93
2024/01/14 13:25:47;;;;;;;31.00;15.00;;;;;;;;;;6229179;23;20390;-92
2024/01/14 13:28:13;;;;;;;24.57;12.43;;;;;;;;;;6233102;23;20378;-91
2024/01/14 13:30:42;;;;;;;19.33;9.70;;;;;;;;;;6231483;23;20393;-92
2024/01/14 13:33:08;;;;;;;21.27;11.23;;;;;;;;;;6231939;23;20386;-92
2024/01/14 13:35:34;;;;;;;15.17;9.87;;;;;;;;;;6229678;23;20385;-93
2024/01/14 13:38:00;;;;;;;29.50;12.77;;;;;;;;;;6230005;23;20903;-91
2024/01/14 13:40:26;;;;;;;24.33;11.23;;;;;;;;;;6230390;22;20458;-92
2024/01/14 13:42:52;;;;;;;21.80;10.90;;;;;;;;;;6230148;23;20378;-93
2024/01/14 13:45:18;;;;;;;26.53;11.50;;;;;;;;;;6229729;23;20457;-92
2024/01/14 13:47:44;;;;;;;17.93;9.90;;;;;;;;;;6226564;23;20393;-92
2024/01/14 13:50:10;;;;;;;22.40;11.30;;;;;;;;;;6196750;23;20383;-92
2024/01/14 13:52:36;;;;;;;21.53;11.73;;;;;;;;;;6193914;22;20375;-92
2024/01/14 13:55:02;;;;;;;16.57;10.10;;;;;;;;;;6195815;23;20394;-92
2024/01/14 13:57:28;;;;;;;21.47;11.63;;;;;;;;;;6194401;23;20386;-92
2024/01/14 13:59:54;;;;;;;22.47;11.10;;;;;;;;;;6195520;23;20482;-91
2024/01/14 14:02:26;;;;;;;23.13;12.00;;;;;;;;;;6194673;23;20379;-93
2024/01/14 14:04:52;;;;;;;22.00;11.97;;;;;;;;;;6220542;23;20729;-91
2024/01/14 14:07:20;;;;;;;24.90;11.40;;;;;;;;;;6195386;23;20379;-91
2024/01/14 14:09:51;;;;;;;21.27;10.83;;;;;;;;;;6195855;23;20375;-94
2024/01/14 14:12:17;;;;;;;21.03;11.13;;;;;;;;;;6195993;23;20429;-93
2024/01/14 14:14:43;;;;;;;25.17;12.20;;;;;;;;;;6198489;23;20387;-94
2024/01/14 14:17:11;;;;;;;26.23;11.10;;;;;;;;;;6195549;23;20389;-92
2024/01/14 14:19:37;;;;;;;28.93;12.73;;;;;;;;;;6195281;23;20423;-94
2024/01/14 14:22:07;;;;;;;22.03;11.00;;;;;;;;;;6200370;23;20388;-92